sensor_id;sensor_type;location;lat;lon;timestamp;P1;durP1;ratioP1;P2;durP2;ratioP2
69542;SDS011;56762;49.494;11.768;2022-11-15T00:01:09;18.43;;;9.07;;
69542;SDS011;56762;49.494;11.768;2022-11-15T00:03:42;16.98;;;8.63;;
69542;SDS011;56762;49.494;11.768;2022-11-15T00:06:10;18.15;;;8.95;;
69542;SDS011;56762;49.494;11.768;2022-11-15T00:08:38;15.10;;;7.68;;
69542;SDS011;56762;49.494;11.768;2022-11-15T00:11:06;17.50;;;9.23;;
69542;SDS011;56762;49.494;11.768;2022-11-15T00:13:37;17.23;;;8.90;;
69542;SDS011;56762;49.494;11.768;2022-11-15T00:16:05;17.65;;;8.65;;
69542;SDS011;56762;49.494;11.768;2022-11-15T00:18:33;16.23;;;8.20;;
69542;SDS011;56762;49.494;11.768;2022-11-15T00:21:14;15.80;;;8.68;;
69542;SDS011;56762;49.494;11.768;2022-11-15T00:23:42;17.55;;;8.18;;
69542;SDS011;56762;49.494;11.768;2022-11-15T00:26:10;17.20;;;8.83;;
69542;SDS011;56762;49.494;11.768;2022-11-15T00:28:39;16.50;;;8.63;;
69542;SDS011;56762;49.494;11.768;2022-11-15T00:31:10;14.85;;;8.00;;
69542;SDS011;56762;49.494;11.768;2022-11-15T00:33:39;16.85;;;8.55;;
69542;SDS011;56762;49.494;11.768;2022-11-15T00:36:11;15.88;;;8.38;;
69542;SDS011;56762;49.494;11.768;2022-11-15T00:38:40;17.30;;;8.33;;
69542;SDS011;56762;49.494;11.768;2022-11-15T00:41:08;16.75;;;8.40;;
69542;SDS011;56762;49.494;11.768;2022-11-15T00:43:36;16.15;;;8.70;;
69542;SDS011;56762;49.494;11.768;2022-11-15T00:46:06;16.45;;;8.57;;
69542;SDS011;56762;49.494;11.768;2022-11-15T00:48:35;16.45;;;8.75;;
69542;SDS011;56762;49.494;11.768;2022-11-15T00:51:03;15.73;;;8.80;;
69542;SDS011;56762;49.494;11.768;2022-11-15T00:53:33;17.83;;;8.80;;
69542;SDS011;56762;49.494;11.768;2022-11-15T00:56:01;17.50;;;9.40;;
69542;SDS011;56762;49.494;11.768;2022-11-15T00:58:28;16.00;;;9.00;;
69542;SDS011;56762;49.494;11.768;2022-11-15T01:00:56;17.65;;;8.55;;
69542;SDS011;56762;49.494;11.768;2022-11-15T01:03:33;17.00;;;9.10;;
69542;SDS011;56762;49.494;11.768;2022-11-15T01:06:01;17.17;;;8.52;;
69542;SDS011;56762;49.494;11.768;2022-11-15T01:08:29;17.35;;;9.43;;
69542;SDS011;56762;49.494;11.768;2022-11-15T01:11:01;19.20;;;8.90;;
69542;SDS011;56762;49.494;11.768;2022-11-15T01:13:30;16.35;;;8.52;;
69542;SDS011;56762;49.494;11.768;2022-11-15T01:15:59;15.20;;;8.60;;
69542;SDS011;56762;49.494;11.768;2022-11-15T01:18:33;17.73;;;8.40;;
69542;SDS011;56762;49.494;11.768;2022-11-15T01:21:04;17.58;;;8.65;;
69542;SDS011;56762;49.494;11.768;2022-11-15T01:23:33;15.23;;;8.32;;
69542;SDS011;56762;49.494;11.768;2022-11-15T01:26:02;16.88;;;8.93;;
69542;SDS011;56762;49.494;11.768;2022-11-15T01:28:32;16.87;;;8.60;;
69542;SDS011;56762;49.494;11.768;2022-11-15T01:31:02;17.48;;;8.27;;
69542;SDS011;56762;49.494;11.768;2022-11-15T01:33:33;16.60;;;8.95;;
69542;SDS011;56762;49.494;11.768;2022-11-15T01:36:03;16.42;;;8.18;;
69542;SDS011;56762;49.494;11.768;2022-11-15T01:38:31;14.15;;;8.30;;
69542;SDS011;56762;49.494;11.768;2022-11-15T01:40:59;13.80;;;8.03;;
69542;SDS011;56762;49.494;11.768;2022-11-15T01:43:29;17.35;;;8.95;;
69542;SDS011;56762;49.494;11.768;2022-11-15T01:46:00;15.90;;;8.55;;
69542;SDS011;56762;49.494;11.768;2022-11-15T01:48:32;16.13;;;8.43;;
69542;SDS011;56762;49.494;11.768;2022-11-15T01:51:02;15.02;;;8.02;;
69542;SDS011;56762;49.494;11.768;2022-11-15T01:53:34;16.83;;;8.47;;
69542;SDS011;56762;49.494;11.768;2022-11-15T01:56:06;14.52;;;8.18;;
69542;SDS011;56762;49.494;11.768;2022-11-15T01:58:38;14.82;;;7.95;;
69542;SDS011;56762;49.494;11.768;2022-11-15T02:01:08;15.93;;;8.80;;
69542;SDS011;56762;49.494;11.768;2022-11-15T02:03:37;17.13;;;8.75;;
69542;SDS011;56762;49.494;11.768;2022-11-15T02:06:11;14.83;;;8.20;;
69542;SDS011;56762;49.494;11.768;2022-11-15T02:08:40;17.60;;;8.48;;
69542;SDS011;56762;49.494;11.768;2022-11-15T02:11:09;16.67;;;8.73;;
69542;SDS011;56762;49.494;11.768;2022-11-15T02:13:39;18.10;;;8.82;;
69542;SDS011;56762;49.494;11.768;2022-11-15T02:16:09;19.52;;;9.15;;
69542;SDS011;56762;49.494;11.768;2022-11-15T02:18:47;15.97;;;8.17;;
69542;SDS011;56762;49.494;11.768;2022-11-15T02:21:21;16.23;;;8.25;;
69542;SDS011;56762;49.494;11.768;2022-11-15T02:23:58;16.67;;;7.97;;
69542;SDS011;56762;49.494;11.768;2022-11-15T02:27:20;16.45;;;8.00;;
69542;SDS011;56762;49.494;11.768;2022-11-15T02:33:08;18.63;;;9.43;;
69542;SDS011;56762;49.494;11.768;2022-11-15T02:35:45;19.05;;;9.10;;
69542;SDS011;56762;49.494;11.768;2022-11-15T02:38:25;19.05;;;9.35;;
69542;SDS011;56762;49.494;11.768;2022-11-15T02:41:01;21.45;;;10.23;;
69542;SDS011;56762;49.494;11.768;2022-11-15T02:43:34;17.85;;;8.73;;
69542;SDS011;56762;49.494;11.768;2022-11-15T02:46:26;20.07;;;9.57;;
69542;SDS011;56762;49.494;11.768;2022-11-15T02:49:20;18.52;;;9.05;;
69542;SDS011;56762;49.494;11.768;2022-11-15T02:51:58;15.93;;;8.73;;
69542;SDS011;56762;49.494;11.768;2022-11-15T02:54:28;18.60;;;9.35;;
69542;SDS011;56762;49.494;11.768;2022-11-15T02:56:58;16.98;;;8.50;;
69542;SDS011;56762;49.494;11.768;2022-11-15T02:59:43;19.77;;;8.97;;
69542;SDS011;56762;49.494;11.768;2022-11-15T03:02:39;16.17;;;8.63;;
69542;SDS011;56762;49.494;11.768;2022-11-15T03:05:18;15.88;;;8.73;;
69542;SDS011;56762;49.494;11.768;2022-11-15T03:07:51;18.33;;;8.93;;
69542;SDS011;56762;49.494;11.768;2022-11-15T03:10:31;19.95;;;9.23;;
69542;SDS011;56762;49.494;11.768;2022-11-15T03:13:07;18.17;;;9.33;;
69542;SDS011;56762;49.494;11.768;2022-11-15T03:15:44;19.85;;;9.55;;
69542;SDS011;56762;49.494;11.768;2022-11-15T03:18:22;15.45;;;8.43;;
69542;SDS011;56762;49.494;11.768;2022-11-15T03:20:57;16.35;;;9.35;;
69542;SDS011;56762;49.494;11.768;2022-11-15T03:23:28;17.92;;;8.82;;
69542;SDS011;56762;49.494;11.768;2022-11-15T03:25:58;19.67;;;9.80;;
69542;SDS011;56762;49.494;11.768;2022-11-15T03:28:28;19.83;;;9.50;;
69542;SDS011;56762;49.494;11.768;2022-11-15T03:31:01;21.75;;;9.80;;
69542;SDS011;56762;49.494;11.768;2022-11-15T03:33:53;19.83;;;9.70;;
69542;SDS011;56762;49.494;11.768;2022-11-15T03:36:24;18.75;;;9.07;;
69542;SDS011;56762;49.494;11.768;2022-11-15T03:38:53;19.77;;;9.47;;
69542;SDS011;56762;49.494;11.768;2022-11-15T03:41:28;16.95;;;9.60;;
69542;SDS011;56762;49.494;11.768;2022-11-15T03:44:04;22.02;;;10.00;;
69542;SDS011;56762;49.494;11.768;2022-11-15T03:46:43;19.10;;;9.77;;
69542;SDS011;56762;49.494;11.768;2022-11-15T03:49:19;18.75;;;9.93;;
69542;SDS011;56762;49.494;11.768;2022-11-15T03:51:50;17.37;;;8.87;;
69542;SDS011;56762;49.494;11.768;2022-11-15T03:54:18;21.33;;;9.23;;
69542;SDS011;56762;49.494;11.768;2022-11-15T03:56:46;20.27;;;10.55;;
69542;SDS011;56762;49.494;11.768;2022-11-15T03:59:14;20.30;;;10.43;;
69542;SDS011;56762;49.494;11.768;2022-11-15T04:01:42;18.40;;;9.15;;
69542;SDS011;56762;49.494;11.768;2022-11-15T04:04:10;18.40;;;9.63;;
69542;SDS011;56762;49.494;11.768;2022-11-15T04:06:39;18.90;;;10.00;;
69542;SDS011;56762;49.494;11.768;2022-11-15T04:09:07;19.15;;;10.02;;
69542;SDS011;56762;49.494;11.768;2022-11-15T04:11:35;21.00;;;10.60;;
69542;SDS011;56762;49.494;11.768;2022-11-15T04:14:03;21.40;;;10.98;;
69542;SDS011;56762;49.494;11.768;2022-11-15T04:16:32;25.13;;;11.87;;
69542;SDS011;56762;49.494;11.768;2022-11-15T04:19:06;20.52;;;10.90;;
69542;SDS011;56762;49.494;11.768;2022-11-15T04:21:52;19.40;;;10.27;;
69542;SDS011;56762;49.494;11.768;2022-11-15T04:24:38;19.13;;;10.00;;
69542;SDS011;56762;49.494;11.768;2022-11-15T04:27:05;23.25;;;11.88;;
69542;SDS011;56762;49.494;11.768;2022-11-15T04:29:33;20.73;;;10.83;;
69542;SDS011;56762;49.494;11.768;2022-11-15T04:32:01;22.45;;;10.93;;
69542;SDS011;56762;49.494;11.768;2022-11-15T04:34:30;21.23;;;10.40;;
69542;SDS011;56762;49.494;11.768;2022-11-15T04:36:59;30.63;;;14.05;;
69542;SDS011;56762;49.494;11.768;2022-11-15T04:39:38;24.95;;;12.20;;
69542;SDS011;56762;49.494;11.768;2022-11-15T04:42:06;17.53;;;9.53;;
69542;SDS011;56762;49.494;11.768;2022-11-15T04:44:34;15.68;;;8.07;;
69542;SDS011;56762;49.494;11.768;2022-11-15T04:47:02;16.17;;;8.50;;
69542;SDS011;56762;49.494;11.768;2022-11-15T04:49:30;15.57;;;8.30;;
69542;SDS011;56762;49.494;11.768;2022-11-15T04:52:00;14.80;;;8.48;;
69542;SDS011;56762;49.494;11.768;2022-11-15T04:54:27;17.10;;;9.23;;
69542;SDS011;56762;49.494;11.768;2022-11-15T04:56:55;16.50;;;8.50;;
69542;SDS011;56762;49.494;11.768;2022-11-15T04:59:23;17.15;;;8.63;;
69542;SDS011;56762;49.494;11.768;2022-11-15T05:01:51;15.80;;;8.68;;
69542;SDS011;56762;49.494;11.768;2022-11-15T05:04:19;19.50;;;9.20;;
69542;SDS011;56762;49.494;11.768;2022-11-15T05:06:50;18.83;;;9.47;;
69542;SDS011;56762;49.494;11.768;2022-11-15T05:09:19;14.55;;;7.80;;
69542;SDS011;56762;49.494;11.768;2022-11-15T05:11:48;17.00;;;9.07;;
69542;SDS011;56762;49.494;11.768;2022-11-15T05:14:16;16.67;;;8.45;;
69542;SDS011;56762;49.494;11.768;2022-11-15T05:16:44;15.98;;;8.43;;
69542;SDS011;56762;49.494;11.768;2022-11-15T05:19:12;15.43;;;8.40;;
69542;SDS011;56762;49.494;11.768;2022-11-15T05:21:42;17.75;;;9.20;;
69542;SDS011;56762;49.494;11.768;2022-11-15T05:24:10;18.60;;;9.63;;
69542;SDS011;56762;49.494;11.768;2022-11-15T05:26:40;19.08;;;9.68;;
69542;SDS011;56762;49.494;11.768;2022-11-15T05:29:08;18.38;;;9.13;;
69542;SDS011;56762;49.494;11.768;2022-11-15T05:31:38;19.40;;;9.43;;
69542;SDS011;56762;49.494;11.768;2022-11-15T05:34:07;18.45;;;9.05;;
69542;SDS011;56762;49.494;11.768;2022-11-15T05:36:36;18.67;;;9.82;;
69542;SDS011;56762;49.494;11.768;2022-11-15T05:39:07;17.48;;;8.88;;
69542;SDS011;56762;49.494;11.768;2022-11-15T05:41:37;18.15;;;9.68;;
69542;SDS011;56762;49.494;11.768;2022-11-15T05:44:09;18.17;;;9.07;;
69542;SDS011;56762;49.494;11.768;2022-11-15T05:46:39;19.30;;;9.10;;
69542;SDS011;56762;49.494;11.768;2022-11-15T05:49:09;17.33;;;9.18;;
69542;SDS011;56762;49.494;11.768;2022-11-15T05:51:41;18.42;;;9.45;;
69542;SDS011;56762;49.494;11.768;2022-11-15T05:54:11;22.80;;;10.52;;
69542;SDS011;56762;49.494;11.768;2022-11-15T05:56:40;18.50;;;9.13;;
69542;SDS011;56762;49.494;11.768;2022-11-15T05:59:08;19.40;;;9.60;;
69542;SDS011;56762;49.494;11.768;2022-11-15T06:01:38;17.08;;;9.38;;
69542;SDS011;56762;49.494;11.768;2022-11-15T06:04:07;20.65;;;10.10;;
69542;SDS011;56762;49.494;11.768;2022-11-15T06:06:35;19.10;;;9.65;;
69542;SDS011;56762;49.494;11.768;2022-11-15T06:09:05;18.20;;;10.30;;
69542;SDS011;56762;49.494;11.768;2022-11-15T06:11:32;20.83;;;11.00;;
69542;SDS011;56762;49.494;11.768;2022-11-15T06:14:02;19.83;;;9.93;;
69542;SDS011;56762;49.494;11.768;2022-11-15T06:16:30;17.92;;;9.00;;
69542;SDS011;56762;49.494;11.768;2022-11-15T06:18:58;16.35;;;8.52;;
69542;SDS011;56762;49.494;11.768;2022-11-15T06:21:26;14.77;;;8.40;;
69542;SDS011;56762;49.494;11.768;2022-11-15T06:23:55;15.90;;;9.25;;
69542;SDS011;56762;49.494;11.768;2022-11-15T06:26:23;17.45;;;9.18;;
69542;SDS011;56762;49.494;11.768;2022-11-15T06:28:56;20.50;;;10.00;;
69542;SDS011;56762;49.494;11.768;2022-11-15T06:31:27;38.20;;;19.65;;
69542;SDS011;56762;49.494;11.768;2022-11-15T06:33:57;32.17;;;16.03;;
69542;SDS011;56762;49.494;11.768;2022-11-15T06:36:27;33.15;;;16.48;;
69542;SDS011;56762;49.494;11.768;2022-11-15T06:38:57;44.80;;;18.85;;
69542;SDS011;56762;49.494;11.768;2022-11-15T06:41:28;32.92;;;14.60;;
69542;SDS011;56762;49.494;11.768;2022-11-15T06:43:56;24.83;;;11.98;;
69542;SDS011;56762;49.494;11.768;2022-11-15T06:46:24;20.93;;;10.43;;
69542;SDS011;56762;49.494;11.768;2022-11-15T06:48:53;29.05;;;11.57;;
69542;SDS011;56762;49.494;11.768;2022-11-15T06:51:21;27.00;;;13.20;;
69542;SDS011;56762;49.494;11.768;2022-11-15T06:53:49;68.78;;;20.52;;
69542;SDS011;56762;49.494;11.768;2022-11-15T06:56:17;68.22;;;23.45;;
69542;SDS011;56762;49.494;11.768;2022-11-15T06:58:45;79.07;;;27.13;;
69542;SDS011;56762;49.494;11.768;2022-11-15T07:01:13;55.10;;;21.67;;
69542;SDS011;56762;49.494;11.768;2022-11-15T07:03:41;43.40;;;21.65;;
69542;SDS011;56762;49.494;11.768;2022-11-15T07:06:11;35.67;;;16.95;;
69542;SDS011;56762;49.494;11.768;2022-11-15T07:08:39;31.70;;;15.18;;
69542;SDS011;56762;49.494;11.768;2022-11-15T07:11:08;35.00;;;15.67;;
69542;SDS011;56762;49.494;11.768;2022-11-15T07:13:36;33.42;;;16.75;;
69542;SDS011;56762;49.494;11.768;2022-11-15T07:16:04;24.02;;;13.20;;
69542;SDS011;56762;49.494;11.768;2022-11-15T07:18:37;28.20;;;13.88;;
69542;SDS011;56762;49.494;11.768;2022-11-15T07:21:07;20.38;;;10.40;;
69542;SDS011;56762;49.494;11.768;2022-11-15T07:23:37;22.33;;;11.37;;
69542;SDS011;56762;49.494;11.768;2022-11-15T07:26:06;25.75;;;12.93;;
69542;SDS011;56762;49.494;11.768;2022-11-15T07:28:35;17.15;;;9.57;;
69542;SDS011;56762;49.494;11.768;2022-11-15T07:31:03;14.85;;;8.70;;
69542;SDS011;56762;49.494;11.768;2022-11-15T07:33:32;19.65;;;10.32;;
69542;SDS011;56762;49.494;11.768;2022-11-15T07:36:00;25.27;;;10.43;;
69542;SDS011;56762;49.494;11.768;2022-11-15T07:38:29;24.80;;;10.88;;
69542;SDS011;56762;49.494;11.768;2022-11-15T07:40:59;20.20;;;10.20;;
69542;SDS011;56762;49.494;11.768;2022-11-15T07:43:32;19.30;;;9.50;;
69542;SDS011;56762;49.494;11.768;2022-11-15T07:46:04;17.75;;;9.27;;
69542;SDS011;56762;49.494;11.768;2022-11-15T07:48:33;15.57;;;8.10;;
69542;SDS011;56762;49.494;11.768;2022-11-15T07:51:10;14.00;;;7.55;;
69542;SDS011;56762;49.494;11.768;2022-11-15T07:53:40;14.48;;;7.88;;
69542;SDS011;56762;49.494;11.768;2022-11-15T07:56:09;12.07;;;6.90;;
69542;SDS011;56762;49.494;11.768;2022-11-15T07:58:40;12.55;;;7.35;;
69542;SDS011;56762;49.494;11.768;2022-11-15T08:01:09;12.27;;;7.47;;
69542;SDS011;56762;49.494;11.768;2022-11-15T08:03:37;16.08;;;7.78;;
69542;SDS011;56762;49.494;11.768;2022-11-15T08:06:05;14.35;;;7.93;;
69542;SDS011;56762;49.494;11.768;2022-11-15T08:08:33;16.10;;;8.48;;
69542;SDS011;56762;49.494;11.768;2022-11-15T08:11:01;16.63;;;8.93;;
69542;SDS011;56762;49.494;11.768;2022-11-15T08:13:30;17.53;;;8.73;;
69542;SDS011;56762;49.494;11.768;2022-11-15T08:15:59;18.75;;;8.90;;
69542;SDS011;56762;49.494;11.768;2022-11-15T08:18:29;17.88;;;9.82;;
69542;SDS011;56762;49.494;11.768;2022-11-15T08:20:58;19.83;;;10.38;;
69542;SDS011;56762;49.494;11.768;2022-11-15T08:23:27;26.63;;;10.70;;
69542;SDS011;56762;49.494;11.768;2022-11-15T08:25:58;30.00;;;12.20;;
69542;SDS011;56762;49.494;11.768;2022-11-15T08:28:28;32.17;;;14.63;;
69542;SDS011;56762;49.494;11.768;2022-11-15T08:30:58;32.35;;;15.73;;
69542;SDS011;56762;49.494;11.768;2022-11-15T08:33:26;42.80;;;16.98;;
69542;SDS011;56762;49.494;11.768;2022-11-15T08:35:55;37.92;;;17.02;;
69542;SDS011;56762;49.494;11.768;2022-11-15T08:38:23;43.20;;;19.80;;
69542;SDS011;56762;49.494;11.768;2022-11-15T08:40:52;35.65;;;16.85;;
69542;SDS011;56762;49.494;11.768;2022-11-15T08:43:25;36.05;;;15.57;;
69542;SDS011;56762;49.494;11.768;2022-11-15T08:45:56;32.13;;;16.40;;
69542;SDS011;56762;49.494;11.768;2022-11-15T08:48:24;33.95;;;16.58;;
69542;SDS011;56762;49.494;11.768;2022-11-15T08:50:53;31.27;;;14.40;;
69542;SDS011;56762;49.494;11.768;2022-11-15T08:53:21;28.35;;;14.60;;
69542;SDS011;56762;49.494;11.768;2022-11-15T08:55:50;24.92;;;12.60;;
69542;SDS011;56762;49.494;11.768;2022-11-15T08:58:18;21.80;;;11.02;;
69542;SDS011;56762;49.494;11.768;2022-11-15T09:00:46;29.08;;;12.80;;
69542;SDS011;56762;49.494;11.768;2022-11-15T09:03:16;22.83;;;11.60;;
69542;SDS011;56762;49.494;11.768;2022-11-15T09:05:44;22.08;;;11.52;;
69542;SDS011;56762;49.494;11.768;2022-11-15T09:08:12;21.08;;;11.70;;
69542;SDS011;56762;49.494;11.768;2022-11-15T09:11:02;22.95;;;11.25;;
69542;SDS011;56762;49.494;11.768;2022-11-15T09:13:30;21.88;;;11.85;;
69542;SDS011;56762;49.494;11.768;2022-11-15T09:15:59;20.33;;;11.30;;
69542;SDS011;56762;49.494;11.768;2022-11-15T09:18:30;23.25;;;13.30;;
69542;SDS011;56762;49.494;11.768;2022-11-15T09:20:59;23.65;;;12.38;;
69542;SDS011;56762;49.494;11.768;2022-11-15T09:23:28;22.30;;;11.10;;
69542;SDS011;56762;49.494;11.768;2022-11-15T09:25:58;18.20;;;10.10;;
69542;SDS011;56762;49.494;11.768;2022-11-15T09:28:26;18.87;;;10.30;;
69542;SDS011;56762;49.494;11.768;2022-11-15T09:30:55;19.85;;;10.93;;
69542;SDS011;56762;49.494;11.768;2022-11-15T09:33:25;18.08;;;10.13;;
69542;SDS011;56762;49.494;11.768;2022-11-15T09:35:57;15.85;;;9.38;;
69542;SDS011;56762;49.494;11.768;2022-11-15T09:38:27;15.73;;;8.85;;
69542;SDS011;56762;49.494;11.768;2022-11-15T09:40:58;16.30;;;9.27;;
69542;SDS011;56762;49.494;11.768;2022-11-15T09:43:51;16.70;;;8.75;;
69542;SDS011;56762;49.494;11.768;2022-11-15T09:46:27;13.30;;;7.20;;
69542;SDS011;56762;49.494;11.768;2022-11-15T09:49:06;15.05;;;8.63;;
69542;SDS011;56762;49.494;11.768;2022-11-15T09:51:38;16.10;;;9.25;;
69542;SDS011;56762;49.494;11.768;2022-11-15T09:54:16;13.37;;;7.63;;
69542;SDS011;56762;49.494;11.768;2022-11-15T09:57:14;17.83;;;9.27;;
69542;SDS011;56762;49.494;11.768;2022-11-15T09:59:48;13.00;;;7.35;;
69542;SDS011;56762;49.494;11.768;2022-11-15T10:02:42;13.65;;;7.70;;
69542;SDS011;56762;49.494;11.768;2022-11-15T10:05:18;17.20;;;8.85;;
69542;SDS011;56762;49.494;11.768;2022-11-15T10:07:53;14.03;;;7.33;;
69542;SDS011;56762;49.494;11.768;2022-11-15T10:10:27;14.15;;;7.65;;
69542;SDS011;56762;49.494;11.768;2022-11-15T10:12:58;14.82;;;8.25;;
69542;SDS011;56762;49.494;11.768;2022-11-15T10:15:26;16.35;;;8.32;;
69542;SDS011;56762;49.494;11.768;2022-11-15T10:18:06;15.55;;;8.57;;
69542;SDS011;56762;49.494;11.768;2022-11-15T10:20:46;12.63;;;7.23;;
69542;SDS011;56762;49.494;11.768;2022-11-15T10:23:17;19.27;;;9.80;;
69542;SDS011;56762;49.494;11.768;2022-11-15T10:25:48;15.95;;;8.70;;
69542;SDS011;56762;49.494;11.768;2022-11-15T10:28:21;19.77;;;9.20;;
69542;SDS011;56762;49.494;11.768;2022-11-15T10:30:53;17.90;;;8.80;;
69542;SDS011;56762;49.494;11.768;2022-11-15T10:33:24;15.07;;;8.47;;
69542;SDS011;56762;49.494;11.768;2022-11-15T10:38:52;16.30;;;8.35;;
69542;SDS011;56762;49.494;11.768;2022-11-15T10:41:22;14.02;;;7.65;;
69542;SDS011;56762;49.494;11.768;2022-11-15T10:44:07;16.38;;;7.55;;
69542;SDS011;56762;49.494;11.768;2022-11-15T10:46:40;18.93;;;9.37;;
69542;SDS011;56762;49.494;11.768;2022-11-15T10:49:13;20.52;;;10.88;;
69542;SDS011;56762;49.494;11.768;2022-11-15T10:51:44;20.08;;;10.55;;
69542;SDS011;56762;49.494;11.768;2022-11-15T10:54:22;15.60;;;8.23;;
69542;SDS011;56762;49.494;11.768;2022-11-15T10:56:53;15.45;;;8.00;;
69542;SDS011;56762;49.494;11.768;2022-11-15T10:59:24;19.63;;;8.60;;
69542;SDS011;56762;49.494;11.768;2022-11-15T11:01:54;19.83;;;9.35;;
69542;SDS011;56762;49.494;11.768;2022-11-15T11:04:22;18.17;;;9.70;;
69542;SDS011;56762;49.494;11.768;2022-11-15T11:06:50;16.00;;;8.60;;
69542;SDS011;56762;49.494;11.768;2022-11-15T11:09:27;18.80;;;9.48;;
69542;SDS011;56762;49.494;11.768;2022-11-15T11:11:58;17.47;;;9.20;;
69542;SDS011;56762;49.494;11.768;2022-11-15T11:14:27;17.00;;;8.80;;
69542;SDS011;56762;49.494;11.768;2022-11-15T11:17:02;17.13;;;8.23;;
69542;SDS011;56762;49.494;11.768;2022-11-15T11:19:48;15.82;;;8.23;;
69542;SDS011;56762;49.494;11.768;2022-11-15T11:22:25;13.85;;;7.35;;
69542;SDS011;56762;49.494;11.768;2022-11-15T11:27:54;16.05;;;8.50;;
69542;SDS011;56762;49.494;11.768;2022-11-15T11:30:32;17.88;;;9.05;;
69542;SDS011;56762;49.494;11.768;2022-11-15T11:33:13;14.18;;;7.57;;
69542;SDS011;56762;49.494;11.768;2022-11-15T11:35:48;15.55;;;8.55;;
69542;SDS011;56762;49.494;11.768;2022-11-15T11:38:34;16.83;;;8.40;;
69542;SDS011;56762;49.494;11.768;2022-11-15T11:41:13;14.23;;;8.32;;
69542;SDS011;56762;49.494;11.768;2022-11-15T11:43:53;14.45;;;8.00;;
69542;SDS011;56762;49.494;11.768;2022-11-15T11:46:37;14.30;;;8.00;;
69542;SDS011;56762;49.494;11.768;2022-11-15T11:49:15;12.48;;;6.90;;
69542;SDS011;56762;49.494;11.768;2022-11-15T11:51:49;13.43;;;7.17;;
69542;SDS011;56762;49.494;11.768;2022-11-15T11:54:22;13.02;;;7.47;;
69542;SDS011;56762;49.494;11.768;2022-11-15T11:57:01;11.57;;;6.45;;
69542;SDS011;56762;49.494;11.768;2022-11-15T11:59:36;13.95;;;6.80;;
69542;SDS011;56762;49.494;11.768;2022-11-15T12:02:11;12.80;;;6.60;;
69542;SDS011;56762;49.494;11.768;2022-11-15T12:04:45;12.60;;;6.10;;
69542;SDS011;56762;49.494;11.768;2022-11-15T12:07:19;12.77;;;6.35;;
69542;SDS011;56762;49.494;11.768;2022-11-15T12:09:51;13.25;;;6.85;;
69542;SDS011;56762;49.494;11.768;2022-11-15T12:12:30;12.90;;;6.55;;
69542;SDS011;56762;49.494;11.768;2022-11-15T12:15:12;12.88;;;6.10;;
69542;SDS011;56762;49.494;11.768;2022-11-15T12:17:44;12.57;;;6.77;;
69542;SDS011;56762;49.494;11.768;2022-11-15T12:20:14;12.27;;;6.95;;
69542;SDS011;56762;49.494;11.768;2022-11-15T12:22:47;13.43;;;6.45;;
69542;SDS011;56762;49.494;11.768;2022-11-15T12:25:21;13.63;;;6.95;;
69542;SDS011;56762;49.494;11.768;2022-11-15T12:27:57;13.35;;;6.15;;
69542;SDS011;56762;49.494;11.768;2022-11-15T12:30:37;10.63;;;6.00;;
69542;SDS011;56762;49.494;11.768;2022-11-15T12:35:59;12.90;;;6.00;;
69542;SDS011;56762;49.494;11.768;2022-11-15T12:41:20;14.23;;;7.15;;
69542;SDS011;56762;49.494;11.768;2022-11-15T12:43:50;20.57;;;9.27;;
69542;SDS011;56762;49.494;11.768;2022-11-15T12:46:22;15.48;;;8.20;;
69542;SDS011;56762;49.494;11.768;2022-11-15T12:49:24;12.60;;;6.80;;
69542;SDS011;56762;49.494;11.768;2022-11-15T12:52:12;10.73;;;6.25;;
69542;SDS011;56762;49.494;11.768;2022-11-15T12:54:53;9.70;;;5.32;;
69542;SDS011;56762;49.494;11.768;2022-11-15T12:57:27;11.77;;;6.90;;
69542;SDS011;56762;49.494;11.768;2022-11-15T13:03:20;13.05;;;6.43;;
69542;SDS011;56762;49.494;11.768;2022-11-15T13:06:03;11.00;;;6.05;;
69542;SDS011;56762;49.494;11.768;2022-11-15T13:08:41;9.30;;;5.00;;
69542;SDS011;56762;49.494;11.768;2022-11-15T13:17:26;10.45;;;5.38;;
69542;SDS011;56762;49.494;11.768;2022-11-15T13:20:11;9.88;;;4.70;;
69542;SDS011;56762;49.494;11.768;2022-11-15T13:22:48;9.43;;;5.32;;
69542;SDS011;56762;49.494;11.768;2022-11-15T13:28:35;10.27;;;4.65;;
69542;SDS011;56762;49.494;11.768;2022-11-15T13:31:14;9.57;;;4.97;;
69542;SDS011;56762;49.494;11.768;2022-11-15T13:33:50;12.05;;;5.90;;
69542;SDS011;56762;49.494;11.768;2022-11-15T13:36:19;19.48;;;7.45;;
69542;SDS011;56762;49.494;11.768;2022-11-15T13:38:59;35.90;;;9.63;;
69542;SDS011;56762;49.494;11.768;2022-11-15T13:41:30;17.38;;;7.40;;
69542;SDS011;56762;49.494;11.768;2022-11-15T13:43:59;11.65;;;5.40;;
69542;SDS011;56762;49.494;11.768;2022-11-15T13:46:29;8.27;;;4.65;;
69542;SDS011;56762;49.494;11.768;2022-11-15T13:49:00;10.00;;;4.45;;
69542;SDS011;56762;49.494;11.768;2022-11-15T13:51:32;9.37;;;4.70;;
69542;SDS011;56762;49.494;11.768;2022-11-15T13:54:07;7.40;;;4.00;;
69542;SDS011;56762;49.494;11.768;2022-11-15T13:56:44;9.50;;;4.55;;
69542;SDS011;56762;49.494;11.768;2022-11-15T13:59:17;7.95;;;3.78;;
69542;SDS011;56762;49.494;11.768;2022-11-15T14:01:50;7.53;;;4.32;;
69542;SDS011;56762;49.494;11.768;2022-11-15T14:04:20;7.47;;;4.00;;
69542;SDS011;56762;49.494;11.768;2022-11-15T14:06:50;9.20;;;5.18;;
69542;SDS011;56762;49.494;11.768;2022-11-15T14:09:34;8.85;;;4.97;;
69542;SDS011;56762;49.494;11.768;2022-11-15T14:14:53;10.65;;;5.95;;
69542;SDS011;56762;49.494;11.768;2022-11-15T14:17:32;11.20;;;5.57;;
69542;SDS011;56762;49.494;11.768;2022-11-15T14:20:02;13.02;;;5.93;;
69542;SDS011;56762;49.494;11.768;2022-11-15T14:22:53;12.52;;;6.72;;
69542;SDS011;56762;49.494;11.768;2022-11-15T14:25:24;13.95;;;6.43;;
69542;SDS011;56762;49.494;11.768;2022-11-15T14:28:10;10.93;;;5.90;;
69542;SDS011;56762;49.494;11.768;2022-11-15T14:30:40;9.23;;;4.47;;
69542;SDS011;56762;49.494;11.768;2022-11-15T14:33:17;11.70;;;5.70;;
69542;SDS011;56762;49.494;11.768;2022-11-15T14:35:47;9.52;;;4.90;;
69542;SDS011;56762;49.494;11.768;2022-11-15T14:38:15;12.10;;;4.90;;
69542;SDS011;56762;49.494;11.768;2022-11-15T14:40:44;7.85;;;4.40;;
69542;SDS011;56762;49.494;11.768;2022-11-15T14:43:12;10.77;;;4.67;;
69542;SDS011;56762;49.494;11.768;2022-11-15T14:45:40;13.52;;;6.03;;
69542;SDS011;56762;49.494;11.768;2022-11-15T14:48:10;20.98;;;8.93;;
69542;SDS011;56762;49.494;11.768;2022-11-15T14:50:38;21.75;;;9.18;;
69542;SDS011;56762;49.494;11.768;2022-11-15T14:53:10;24.27;;;11.60;;
69542;SDS011;56762;49.494;11.768;2022-11-15T14:55:39;26.33;;;11.57;;
69542;SDS011;56762;49.494;11.768;2022-11-15T14:58:09;23.30;;;10.05;;
69542;SDS011;56762;49.494;11.768;2022-11-15T15:00:38;19.15;;;9.23;;
69542;SDS011;56762;49.494;11.768;2022-11-15T15:03:07;15.90;;;7.78;;
69542;SDS011;56762;49.494;11.768;2022-11-15T15:05:38;17.63;;;8.02;;
69542;SDS011;56762;49.494;11.768;2022-11-15T15:08:08;16.80;;;8.37;;
69542;SDS011;56762;49.494;11.768;2022-11-15T15:10:37;19.83;;;9.15;;
69542;SDS011;56762;49.494;11.768;2022-11-15T15:13:12;15.90;;;7.82;;
69542;SDS011;56762;49.494;11.768;2022-11-15T15:15:44;14.13;;;6.88;;
69542;SDS011;56762;49.494;11.768;2022-11-15T15:18:12;14.82;;;7.40;;